Time;durP1;ratioP1;P1;durP2;ratioP2;P2;SDS_P1;SDS_P2;PMS_P1;PMS_P2;Temp;Humidity;BMP_temperature;BMP_pressure;BME280_temperature;BME280_humidity;BME280_pressure;Samples;Min_cycle;Max_cycle;Signal;HPM_P1;HPM_P2
2022/04/14 00:04:04;;;;;;;;;;;;;;;14.22;89.22;101716.72;10559706;27;19930;-64
2022/04/14 00:09:27;;;;;;;;;;;;;;;14.15;88.11;101717.22;10568516;27;19923;-64
2022/04/14 00:14:49;;;;;;;;;;;;;;;14.10;89.13;101714.88;10570639;27;19934;-64
2022/04/14 00:20:10;;;;;;;;;;;;;;;14.07;89.10;101714.25;10598610;27;19934;-63
2022/04/14 00:25:32;;;;;;;;;;;;;;;14.05;89.23;101716.13;10578408;27;19934;-65
2022/04/14 00:30:53;;;;;;;;;;;;;;;13.99;89.93;101722.59;10555531;27;19931;-63
2022/04/14 00:36:17;;;;;;;;;;;;;;;14.02;89.12;101726.81;10579056;28;22525;-65
2022/04/14 00:41:38;;;;;;;;;;;;;;;13.87;90.34;101712.06;10552763;28;19958;-65
2022/04/14 00:47:00;;;;;;;;;;;;;;;13.78;90.63;101710.03;10583950;28;19930;-64
2022/04/14 00:52:22;;;;;;;;;;;;;;;13.69;90.81;101710.59;10584084;28;19924;-65
2022/04/14 00:57:43;;;;;;;;;;;;;;;13.69;91.61;101707.97;10573591;28;19935;-65
2022/04/14 01:03:05;;;;;;;;;;;;;;;13.74;90.42;101709.41;10553578;28;19966;-65
2022/04/14 01:08:27;;;;;;;;;;;;;;;13.69;89.76;101700.97;10592907;28;19923;-65
2022/04/14 01:13:49;;;;;;;;;;;;;;;13.69;90.60;101697.50;10582544;28;20502;-65
2022/04/14 01:19:10;;;;;;;;;;;;;;;13.71;90.54;101690.38;10597315;28;19998;-65
2022/04/14 01:24:34;;;;;;;;;;;;;;;13.72;90.83;101694.69;10562929;28;19924;-65
2022/04/14 01:29:55;;;;;;;;;;;;;;;13.67;91.14;101686.31;10569387;28;19935;-65
2022/04/14 01:35:17;;;;;;;;;;;;;;;13.65;90.63;101680.31;10568693;27;19934;-65
2022/04/14 01:40:38;;;;;;;;;;;;;;;13.61;91.12;101678.81;10610183;27;19911;-66
2022/04/14 01:46:00;;;;;;;;;;;;;;;13.64;89.88;101681.25;10572465;27;20071;-65
2022/04/14 01:51:22;;;;;;;;;;;;;;;13.62;90.93;101683.13;10600993;27;19927;-65
2022/04/14 01:56:45;;;;;;;;;;;;;;;13.63;90.46;101692.66;10585177;27;20546;-64
2022/04/14 02:02:07;;;;;;;;;;;;;;;13.62;89.81;101690.97;10545628;27;19930;-64
2022/04/14 02:07:28;;;;;;;;;;;;;;;13.60;90.16;101688.47;10596981;27;20026;-65
2022/04/14 02:12:50;;;;;;;;;;;;;;;13.59;90.04;101689.41;10552424;27;19928;-64
2022/04/14 02:18:12;;;;;;;;;;;;;;;13.61;90.80;101689.28;10585691;27;19931;-65
2022/04/14 02:23:33;;;;;;;;;;;;;;;13.56;90.76;101686.13;10566424;27;19935;-64
2022/04/14 02:28:55;;;;;;;;;;;;;;;13.44;91.64;101697.38;10573060;27;19934;-65
2022/04/14 02:34:16;;;;;;;;;;;;;;;13.46;91.43;101697.28;10551387;27;19935;-64
2022/04/14 02:39:39;;;;;;;;;;;;;;;13.51;90.89;101693.44;10626560;27;19983;-64
2022/04/14 02:45:01;;;;;;;;;;;;;;;13.45;90.18;101695.59;10573425;27;19931;-65
2022/04/14 02:50:22;;;;;;;;;;;;;;;13.36;90.94;101693.53;10580564;27;19928;-64
2022/04/14 02:55:44;;;;;;;;;;;;;;;13.35;91.78;101690.09;10569606;27;20376;-65
2022/04/14 03:01:05;;;;;;;;;;;;;;;13.26;92.22;101688.03;10563493;27;20328;-65
2022/04/14 03:06:27;;;;;;;;;;;;;;;13.23;91.85;101685.63;10559739;28;19963;-65
2022/04/14 03:11:49;;;;;;;;;;;;;;;13.15;92.30;101677.38;10564316;27;19935;-65
2022/04/14 03:17:10;;;;;;;;;;;;;;;13.12;92.03;101677.56;10578803;27;19947;-65
2022/04/14 03:22:33;;;;;;;;;;;;;;;13.06;91.87;101674.47;10554211;28;20283;-65
2022/04/14 03:27:54;;;;;;;;;;;;;;;13.05;92.13;101673.66;10569877;28;20538;-64
2022/04/14 03:33:16;;;;;;;;;;;;;;;13.08;91.73;101678.72;10571648;28;19939;-65
2022/04/14 03:38:37;;;;;;;;;;;;;;;13.05;91.69;101673.66;10567228;28;20483;-64
2022/04/14 03:43:59;;;;;;;;;;;;;;;12.98;92.50;101672.34;10544022;28;19923;-65
2022/04/14 03:49:21;;;;;;;;;;;;;;;12.95;92.40;101671.69;10575686;28;20388;-64
2022/04/14 03:54:42;;;;;;;;;;;;;;;12.92;92.17;101677.97;10567728;28;20446;-66
2022/04/14 04:00:04;;;;;;;;;;;;;;;12.90;93.10;101685.06;10578494;28;19935;-65
2022/04/14 04:05:25;;;;;;;;;;;;;;;12.89;93.33;101683.38;10573189;28;20017;-65
2022/04/14 04:10:47;;;;;;;;;;;;;;;12.91;92.30;101675.41;10574650;28;19924;-65
2022/04/14 04:16:10;;;;;;;;;;;;;;;12.87;92.72;101677.34;10567597;28;19924;-65
2022/04/14 04:21:32;;;;;;;;;;;;;;;12.82;92.71;101687.25;10555492;28;19924;-65
2022/04/14 04:26:54;;;;;;;;;;;;;;;12.80;93.09;101690.91;10556476;27;19923;-65
2022/04/14 04:32:15;;;;;;;;;;;;;;;12.79;92.71;101697.06;10558593;28;19931;-65
2022/04/14 04:37:37;;;;;;;;;;;;;;;12.75;92.53;101680.72;10558893;28;20296;-65
2022/04/14 04:42:58;;;;;;;;;;;;;;;12.79;92.51;101697.06;10543619;28;19931;-65
2022/04/14 04:48:20;;;;;;;;;;;;;;;12.79;92.55;101697.91;10573852;28;19924;-65
2022/04/14 04:53:42;;;;;;;;;;;;;;;12.74;93.00;101699.97;10569512;28;19924;-65
2022/04/14 04:59:03;;;;;;;;;;;;;;;12.73;92.62;101711.34;10573478;28;19923;-65
2022/04/14 05:04:25;;;;;;;;;;;;;;;12.78;93.10;101711.06;10569211;28;19927;-65
2022/04/14 05:09:47;;;;;;;;;;;;;;;12.77;92.49;101718.09;10552407;28;20006;-65
2022/04/14 05:15:09;;;;;;;;;;;;;;;12.76;92.60;101713.78;10578399;28;19998;-65
2022/04/14 05:20:31;;;;;;;;;;;;;;;12.74;92.67;101715.66;10581049;28;20405;-65
2022/04/14 05:25:54;;;;;;;;;;;;;;;12.72;92.43;101722.75;10571918;28;19927;-65
2022/04/14 05:31:16;;;;;;;;;;;;;;;12.75;91.52;101721.72;10572819;28;20394;-65
2022/04/14 05:36:37;;;;;;;;;;;;;;;12.69;92.25;101727.31;10549987;28;19923;-65
2022/04/14 05:41:59;;;;;;;;;;;;;;;12.68;92.41;101723.84;10545869;28;19924;-65
2022/04/14 05:47:23;;;;;;;;;;;;;;;12.71;92.58;101744.59;10578230;28;20257;-65
2022/04/14 05:52:45;;;;;;;;;;;;;;;12.75;91.31;101751.34;10561824;28;19970;-65
2022/04/14 05:58:07;;;;;;;;;;;;;;;12.81;90.83;101743.13;10578961;28;19928;-65
2022/04/14 06:03:28;;;;;;;;;;;;;;;12.85;90.92;101744.63;10575808;28;19923;-64
2022/04/14 06:08:50;;;;;;;;;;;;;;;12.89;90.67;101743.56;10572145;28;19935;-65
2022/04/14 06:14:11;;;;;;;;;;;;;;;12.88;90.65;101747.06;10552426;28;20275;-65
2022/04/14 06:19:33;;;;;;;;;;;;;;;12.98;90.26;101753.47;10554978;27;19935;-64
2022/04/14 06:24:57;;;;;;;;;;;;;;;12.99;90.17;101763.00;10558316;28;19939;-65
2022/04/14 06:30:19;;;;;;;;;;;;;;;12.98;91.18;101766.56;10542327;28;19944;-66
2022/04/14 06:35:41;;;;;;;;;;;;;;;13.00;90.05;101759.47;10532758;27;19931;-65
2022/04/14 06:41:02;;;;;;;;;;;;;;;12.97;90.49;101754.41;10547544;27;19932;-65
2022/04/14 06:46:26;;;;;;;;;;;;;;;13.00;90.68;101763.88;10534648;28;20396;-65
2022/04/14 06:51:47;;;;;;;;;;;;;;;12.99;90.68;101768.25;10552976;28;19924;-65
2022/04/14 06:57:13;;;;;;;;;;;;;;;12.96;90.35;101773.66;10545708;28;20005;-64
2022/04/14 07:02:43;;;;;;;;;;;;;;;12.93;90.05;101778.25;10544058;28;19925;-65
2022/04/14 07:08:05;;;;;;;;;;;;;;;12.94;90.81;101783.41;10530411;28;19924;-65
2022/04/14 07:13:27;;;;;;;;;;;;;;;12.89;89.78;101779.31;10547615;28;19932;-65
2022/04/14 07:18:49;;;;;;;;;;;;;;;12.82;90.45;101783.22;10548828;28;19931;-65
2022/04/14 07:24:10;;;;;;;;;;;;;;;12.75;90.80;101777.53;10557235;28;19928;-65
2022/04/14 07:29:32;;;;;;;;;;;;;;;12.76;90.66;101780.97;10558308;27;19931;-65
2022/04/14 07:34:53;;;;;;;;;;;;;;;12.86;90.85;101782.97;10562091;28;19924;-65
2022/04/14 07:40:15;;;;;;;;;;;;;;;13.03;90.68;101774.13;10574479;28;20422;-65
2022/04/14 07:45:38;;;;;;;;;;;;;;;13.12;89.37;101782.28;10542863;27;19927;-65
2022/04/14 07:51:01;;;;;;;;;;;;;;;13.24;89.46;101773.72;10512167;28;19928;-67
2022/04/14 07:56:22;;;;;;;;;;;;;;;13.35;88.81;101776.53;10536024;28;19928;-67
2022/04/14 08:01:44;;;;;;;;;;;;;;;13.51;88.36;101772.03;10541845;28;19932;-66
2022/04/14 08:07:06;;;;;;;;;;;;;;;13.63;88.79;101781.75;10531117;28;20007;-66
2022/04/14 08:12:38;;;;;;;;;;;;;;;13.80;87.01;101779.75;10554325;28;19924;-67
2022/04/14 08:18:00;;;;;;;;;;;;;;;13.93;87.55;101785.91;10546887;28;19924;-66
2022/04/14 08:23:21;;;;;;;;;;;;;;;14.07;87.29;101785.88;10535466;27;19966;-66
2022/04/14 08:28:43;;;;;;;;;;;;;;;14.22;86.50;101786.72;10568908;28;20280;-67
2022/04/14 08:34:05;;;;;;;;;;;;;;;14.39;85.08;101792.56;10556794;28;19924;-68
2022/04/14 08:39:29;;;;;;;;;;;;;;;14.55;83.76;101791.44;10575281;27;19928;-67
2022/04/14 08:44:56;;;;;;;;;;;;;;;14.72;84.04;101793.81;10589737;28;19927;-67
2022/04/14 08:50:18;;;;;;;;;;;;;;;14.86;83.14;101780.59;10558869;28;19928;-67
2022/04/14 08:55:43;;;;;;;;;;;;;;;15.04;81.41;101782.00;10573144;28;19924;-68
2022/04/14 09:01:05;;;;;;;;;;;;;;;15.21;80.31;101775.63;10554322;28;19947;-66
2022/04/14 09:06:44;;;;;;;;;;;;;;;15.29;80.18;101784.66;10547585;28;20504;-67
2022/04/14 09:12:06;;;;;;;;;;;;;;;15.46;80.45;101782.56;10557479;28;19924;-66
2022/04/14 09:17:28;;;;;;;;;;;;;;;15.58;77.77;101775.59;10561032;28;19924;-66
2022/04/14 09:23:09;;;;;;;;;;;;;;;15.81;75.84;101780.09;10553398;28;19939;-68
2022/04/14 09:28:30;;;;;;;;;;;;;;;15.78;76.88;101777.66;10556327;28;19935;-66
2022/04/14 09:33:52;;;;;;;;;;;;;;;15.92;76.15;101774.91;10565667;28;20279;-65
2022/04/14 09:39:14;;;;;;;;;;;;;;;16.07;76.52;101779.91;10603594;28;19930;-67
2022/04/14 09:44:36;;;;;;;;;;;;;;;16.29;74.01;101776.56;10574774;28;20295;-67
2022/04/14 09:49:57;;;;;;;;;;;;;;;16.37;73.93;101782.13;10560292;28;20406;-65
2022/04/14 09:55:19;;;;;;;;;;;;;;;16.43;72.77;101775.47;10556842;27;19931;-67
2022/04/14 10:00:41;;;;;;;;;;;;;;;16.55;73.05;101774.56;10545011;28;20398;-67
2022/04/14 10:06:06;;;;;;;;;;;;;;;16.70;72.94;101773.44;10601376;27;19924;-67
2022/04/14 10:11:36;;;;;;;;;;;;;;;16.90;72.36;101780.66;10554040;27;19934;-67
2022/04/14 10:17:02;;;;;;;;;;;;;;;17.10;71.99;101774.72;10568797;27;20376;-67
2022/04/14 10:22:28;;;;;;;;;;;;;;;17.36;71.59;101770.94;10574963;27;19989;-68
2022/04/14 10:27:51;;;;;;;;;;;;;;;17.47;71.14;101776.22;10607560;27;19930;-68
2022/04/14 10:33:14;;;;;;;;;;;;;;;17.49;71.84;101761.13;10609382;27;19999;-66
2022/04/14 10:38:37;;;;;;;;;;;;;;;17.53;71.26;101775.75;10572633;27;20279;-68
2022/04/14 10:43:59;;;;;;;;;;;;;;;17.40;71.52;101782.94;10547670;28;20042;-68
2022/04/14 10:49:32;;;;;;;;;;;;;;;17.34;72.25;101777.31;10606278;27;19928;-68
2022/04/14 10:55:32;;;;;;;;;;;;;;;17.40;70.81;101786.41;10586472;27;19924;-67
2022/04/14 11:00:54;;;;;;;;;;;;;;;17.31;71.57;101793.34;10562872;28;19930;-68
2022/04/14 11:06:35;;;;;;;;;;;;;;;17.31;70.56;101809.16;10551232;27;19928;-67
2022/04/14 11:12:00;;;;;;;;;;;;;;;17.41;71.02;101805.72;10568935;27;19927;-68
2022/04/14 11:17:36;;;;;;;;;;;;;;;17.35;68.27;101800.91;10572614;27;19935;-67
2022/04/14 11:23:07;;;;;;;;;;;;;;;17.35;68.49;101810.63;10545760;28;19932;-67
2022/04/14 11:28:36;;;;;;;;;;;;;;;17.51;68.74;101809.31;10555309;28;19931;-67
2022/04/14 11:33:58;;;;;;;;;;;;;;;17.72;68.29;101800.56;10579998;27;19942;-66
2022/04/14 11:39:22;;;;;;;;;;;;;;;17.60;68.23;101801.53;10586025;27;19935;-67
2022/04/14 11:44:45;;;;;;;;;;;;;;;17.43;67.89;101812.53;10563900;27;19924;-67
2022/04/14 11:50:07;;;;;;;;;;;;;;;17.39;69.93;101806.78;10560191;28;19946;-68
2022/04/14 11:55:35;;;;;;;;;;;;;;;17.36;70.55;101805.22;10564594;27;19924;-68
2022/04/14 12:00:57;;;;;;;;;;;;;;;17.47;69.14;101815.75;10559637;28;19943;-68
2022/04/14 12:06:19;;;;;;;;;;;;;;;17.43;67.78;101815.16;10533849;27;19935;-67
2022/04/14 12:11:40;;;;;;;;;;;;;;;17.52;68.54;101821.53;10568840;27;20284;-67
2022/04/14 12:17:03;;;;;;;;;;;;;;;17.67;67.67;101812.44;10568526;27;20564;-70
2022/04/14 12:22:27;;;;;;;;;;;;;;;17.81;66.97;101810.41;10558768;28;19927;-70
2022/04/14 12:27:49;;;;;;;;;;;;;;;17.96;68.28;101797.78;10580475;27;20279;-71
2022/04/14 12:33:11;;;;;;;;;;;;;;;18.07;65.48;101806.53;10578937;27;19924;-69
2022/04/14 12:38:47;;;;;;;;;;;;;;;18.04;66.32;101805.94;10578202;27;19928;-69
2022/04/14 12:44:15;;;;;;;;;;;;;;;18.05;65.27;101807.59;10564323;28;20423;-69
2022/04/14 12:49:36;;;;;;;;;;;;;;;18.08;65.78;101802.94;10573888;28;19930;-69
2022/04/14 12:54:58;;;;;;;;;;;;;;;18.15;66.23;101805.91;10567628;28;19923;-69
2022/04/14 13:00:20;;;;;;;;;;;;;;;18.02;65.63;101813.13;10576878;28;19923;-69
2022/04/14 13:05:42;;;;;;;;;;;;;;;17.70;66.98;101820.09;10564537;28;19923;-70
2022/04/14 13:11:04;;;;;;;;;;;;;;;17.57;67.64;101824.66;10575531;28;19928;-70
2022/04/14 13:16:26;;;;;;;;;;;;;;;17.45;67.82;101823.81;10585151;28;19927;-69
2022/04/14 13:21:47;;;;;;;;;;;;;;;17.39;67.21;101827.88;10568089;28;19936;-69
2022/04/14 13:27:09;;;;;;;;;;;;;;;17.39;68.14;101827.88;10574243;28;19932;-69
2022/04/14 13:32:31;;;;;;;;;;;;;;;17.45;67.48;101820.34;10536033;28;19924;-70
2022/04/14 13:37:53;;;;;;;;;;;;;;;17.54;66.08;101816.97;10587035;27;19975;-70
2022/04/14 13:43:14;;;;;;;;;;;;;;;17.64;67.03;101823.22;10572690;27;20400;-70
2022/04/14 13:48:36;;;;;;;;;;;;;;;17.71;65.97;101829.69;10600004;27;20383;-70
2022/04/14 13:53:58;;;;;;;;;;;;;;;17.66;66.47;101818.66;10591813;27;19931;-70
2022/04/14 13:59:20;;;;;;;;;;;;;;;17.76;66.47;101822.25;10596714;27;19932;-70
2022/04/14 14:04:41;;;;;;;;;;;;;;;17.78;66.95;101822.97;10606965;27;19923;-70
2022/04/14 14:10:04;;;;;;;;;;;;;;;17.77;65.47;101826.56;10546189;27;19923;-71
2022/04/14 14:15:25;;;;;;;;;;;;;;;17.79;66.78;101825.50;10552079;27;19924;-70
2022/04/14 14:20:47;;;;;;;;;;;;;;;17.74;67.09;101822.38;10561895;27;19924;-69
2022/04/14 14:26:09;;;;;;;;;;;;;;;17.70;64.90;101828.03;10576475;27;19958;-69
2022/04/14 14:31:30;;;;;;;;;;;;;;;17.65;64.45;101824.91;10566710;27;19947;-70
2022/04/14 14:36:52;;;;;;;;;;;;;;;17.60;63.99;101833.16;10579097;27;19928;-69
2022/04/14 14:42:13;;;;;;;;;;;;;;;17.41;65.31;101837.34;10558867;28;20391;-69
2022/04/14 14:47:35;;;;;;;;;;;;;;;17.44;66.49;101837.13;10575973;27;20388;-69
2022/04/14 14:52:56;;;;;;;;;;;;;;;17.42;65.89;101849.56;10559639;27;19935;-69
2022/04/14 15:04:00;;;;;;;;;;;;;;;17.27;66.67;101841.94;10559402;27;19950;-70
2022/04/14 15:09:24;;;;;;;;;;;;;;;17.30;65.93;101850.50;10537734;28;19928;-70
2022/04/14 15:14:45;;;;;;;;;;;;;;;17.43;67.59;101864.44;10550428;27;19924;-69
2022/04/14 15:20:07;;;;;;;;;;;;;;;17.62;68.43;101862.03;10532934;27;19924;-70
2022/04/14 15:25:29;;;;;;;;;;;;;;;17.89;67.69;101876.59;10543286;27;19924;-71
2022/04/14 15:30:52;;;;;;;;;;;;;;;18.24;66.51;101871.19;10534792;27;20007;-71
2022/04/14 15:36:14;;;;;;;;;;;;;;;18.51;65.47;101872.47;10536826;27;20420;-71
2022/04/14 15:41:35;;;;;;;;;;;;;;;18.69;64.04;101878.91;10544358;28;20006;-70
2022/04/14 15:46:57;;;;;;;;;;;;;;;18.72;64.33;101874.22;10538160;28;19960;-71
2022/04/14 15:52:18;;;;;;;;;;;;;;;18.63;65.74;101890.78;10525150;27;20042;-71
2022/04/14 15:57:40;;;;;;;;;;;;;;;18.72;65.97;101879.50;10540250;27;19932;-69
2022/04/14 16:03:01;;;;;;;;;;;;;;;18.77;64.22;101872.03;10539526;27;20327;-72
2022/04/14 16:08:24;;;;;;;;;;;;;;;18.89;65.49;101881.59;10531773;28;19924;-72
2022/04/14 16:13:46;;;;;;;;;;;;;;;18.80;65.40;101881.50;10526654;27;19924;-71
2022/04/14 16:19:07;;;;;;;;;;;;;;;18.60;65.41;101893.72;10532234;27;19924;-72
2022/04/14 16:24:36;;;;;;;;;;;;;;;18.20;65.80;101896.13;10532321;27;19974;-68
2022/04/14 16:29:58;;;;;;;;;;;;;;;18.10;64.61;101889.91;10515904;28;19935;-69
2022/04/14 16:35:20;;;;;;;;;;;;;;;18.29;64.96;101900.72;10532094;27;20542;-67
2022/04/14 16:40:41;;;;;;;;;;;;;;;18.54;64.74;101896.81;10550685;28;19932;-66
2022/04/14 16:46:03;;;;;;;;;;;;;;;18.52;63.49;101898.75;10541813;28;19923;-67
2022/04/14 16:51:25;;;;;;;;;;;;;;;18.58;65.58;101908.84;10528143;28;20011;-67
2022/04/14 16:56:46;;;;;;;;;;;;;;;18.40;64.63;101898.91;10534828;28;19931;-68
2022/04/14 17:02:11;;;;;;;;;;;;;;;18.08;65.91;101912.91;10524470;27;19955;-66
2022/04/14 17:07:35;;;;;;;;;;;;;;;17.69;64.39;101923.94;10544363;27;19927;-67
2022/04/14 17:12:57;;;;;;;;;;;;;;;17.50;65.68;101923.66;10545457;27;19975;-68
2022/04/14 17:18:18;;;;;;;;;;;;;;;17.21;63.74;101930.22;10535638;28;19945;-68
2022/04/14 17:29:20;;;;;;;;;;;;;;;16.81;67.07;101944.66;10529045;27;20391;-69
2022/04/14 17:34:42;;;;;;;;;;;;;;;16.75;66.82;101954.78;10539891;27;19924;-68
2022/04/14 17:40:03;;;;;;;;;;;;;;;16.43;65.93;101954.47;10538027;28;20249;-67
2022/04/14 17:45:25;;;;;;;;;;;;;;;16.09;66.18;101951.63;10561812;27;20470;-66
2022/04/14 17:50:46;;;;;;;;;;;;;;;15.92;65.00;101964.25;10540340;28;20419;-64
2022/04/14 17:56:08;;;;;;;;;;;;;;;15.77;66.13;101965.31;10534113;27;20019;-65
2022/04/14 18:01:30;;;;;;;;;;;;;;;15.51;67.82;101963.59;10544150;28;19935;-65
2022/04/14 18:06:52;;;;;;;;;;;;;;;15.35;67.85;101962.09;10541207;27;20398;-64
2022/04/14 18:12:13;;;;;;;;;;;;;;;15.24;68.38;101972.41;10527533;28;20391;-64
2022/04/14 18:17:36;;;;;;;;;;;;;;;15.10;68.76;101980.34;10568453;27;19930;-64
2022/04/14 18:22:58;;;;;;;;;;;;;;;14.96;68.66;101989.13;10579866;27;19931;-65
2022/04/14 18:28:20;;;;;;;;;;;;;;;14.79;68.61;101985.88;10566700;27;19928;-65
2022/04/14 18:33:42;;;;;;;;;;;;;;;14.54;70.13;101997.09;10540389;27;19935;-65
2022/04/14 18:39:03;;;;;;;;;;;;;;;14.49;70.12;102009.66;10543875;27;19928;-65
2022/04/14 18:44:25;;;;;;;;;;;;;;;14.39;70.26;102020.81;10543506;28;19939;-65
2022/04/14 18:49:47;;;;;;;;;;;;;;;14.26;70.57;102040.03;10535203;27;20418;-65
2022/04/14 18:55:08;;;;;;;;;;;;;;;14.03;70.76;102040.50;10560828;27;19927;-65
2022/04/14 19:00:30;;;;;;;;;;;;;;;13.91;71.21;102049.09;10599540;27;19934;-64
2022/04/14 19:05:51;;;;;;;;;;;;;;;13.84;71.61;102058.25;10584955;27;19934;-65
2022/04/14 19:11:13;;;;;;;;;;;;;;;13.74;72.28;102057.09;10550885;27;19955;-65
2022/04/14 19:16:34;;;;;;;;;;;;;;;13.68;72.58;102073.19;10567001;27;19928;-66
2022/04/14 19:21:56;;;;;;;;;;;;;;;13.52;73.32;102069.75;10572993;27;20220;-65
2022/04/14 19:27:18;;;;;;;;;;;;;;;13.35;73.69;102080.34;10575410;27;19927;-66
2022/04/14 19:32:39;;;;;;;;;;;;;;;13.16;73.46;102084.06;10576435;27;20288;-65
2022/04/14 19:38:02;;;;;;;;;;;;;;;13.10;74.06;102081.78;10533425;27;19931;-65
2022/04/14 19:43:23;;;;;;;;;;;;;;;12.93;73.96;102098.41;10532502;27;19935;-65
2022/04/14 19:48:45;;;;;;;;;;;;;;;12.67;74.73;102104.13;10555925;27;20642;-66
2022/04/14 19:54:08;;;;;;;;;;;;;;;12.55;74.64;102111.78;10522149;28;19938;-65
2022/04/14 19:59:30;;;;;;;;;;;;;;;12.39;75.20;102115.25;10545765;28;20308;-65
2022/04/14 20:04:52;;;;;;;;;;;;;;;12.39;75.17;102121.34;10536208;28;19935;-65
2022/04/14 20:10:13;;;;;;;;;;;;;;;12.35;75.13;102118.97;10537844;28;20415;-65
2022/04/14 20:15:35;;;;;;;;;;;;;;;12.21;75.36;102116.22;10548457;28;19928;-64
2022/04/14 20:20:58;;;;;;;;;;;;;;;12.14;76.24;102120.06;10593176;27;20561;-64
2022/04/14 20:26:20;;;;;;;;;;;;;;;12.04;76.03;102126.69;10582755;27;19924;-66
2022/04/14 20:31:41;;;;;;;;;;;;;;;12.08;76.26;102125.63;10575674;27;19935;-65
2022/04/14 20:37:03;;;;;;;;;;;;;;;12.10;75.95;102129.84;10566823;27;20028;-65
2022/04/14 20:42:24;;;;;;;;;;;;;;;11.98;76.12;102133.06;10548551;27;20096;-66
2022/04/14 20:47:46;;;;;;;;;;;;;;;11.98;76.11;102126.97;10545728;28;20450;-66
2022/04/14 20:53:08;;;;;;;;;;;;;;;11.97;75.58;102122.66;10567360;28;19946;-66
2022/04/14 20:58:29;;;;;;;;;;;;;;;11.80;75.48;102125.25;10573912;28;19924;-65
2022/04/14 21:03:54;;;;;;;;;;;;;;;11.88;75.17;102130.97;10549493;28;19963;-65
2022/04/14 21:09:15;;;;;;;;;;;;;;;11.90;75.04;102136.97;10545738;28;19924;-65
2022/04/14 21:14:37;;;;;;;;;;;;;;;11.81;76.04;102143.50;10549604;28;20404;-65
2022/04/14 21:19:58;;;;;;;;;;;;;;;11.82;75.69;102139.09;10571464;28;19975;-66
2022/04/14 21:25:20;;;;;;;;;;;;;;;11.71;76.04;102139.63;10565425;28;19934;-66
2022/04/14 21:30:43;;;;;;;;;;;;;;;11.62;76.58;102136.63;10599750;28;20387;-66
2022/04/14 21:36:05;;;;;;;;;;;;;;;11.73;75.72;102139.56;10577681;28;20408;-66
2022/04/14 21:41:27;;;;;;;;;;;;;;;11.74;75.85;102146.47;10558615;28;19949;-66
2022/04/14 21:46:49;;;;;;;;;;;;;;;11.62;76.13;102144.44;10562786;28;19924;-66
2022/04/14 21:52:10;;;;;;;;;;;;;;;11.64;76.36;102150.47;10556661;27;19924;-66
2022/04/14 21:57:32;;;;;;;;;;;;;;;11.57;76.12;102149.03;10596371;27;19936;-66
2022/04/14 22:02:53;;;;;;;;;;;;;;;11.45;77.30;102149.59;10603684;27;19931;-66
2022/04/14 22:08:15;;;;;;;;;;;;;;;11.44;78.06;102158.34;10605740;27;19923;-66
2022/04/14 22:13:37;;;;;;;;;;;;;;;11.45;76.53;102153.94;10561060;28;19943;-66
2022/04/14 22:18:59;;;;;;;;;;;;;;;11.46;76.91;102156.50;10572356;28;19923;-66
2022/04/14 22:24:21;;;;;;;;;;;;;;;11.54;76.86;102157.00;10562356;28;19931;-66
2022/04/14 22:29:42;;;;;;;;;;;;;;;11.50;76.67;102158.91;10536792;28;20568;-66
2022/04/14 22:35:04;;;;;;;;;;;;;;;11.40;76.44;102163.78;10574100;28;19935;-66
2022/04/14 22:40:26;;;;;;;;;;;;;;;11.38;76.70;102161.22;10577572;28;20253;-66
2022/04/14 22:45:47;;;;;;;;;;;;;;;11.38;76.34;102169.06;10570292;28;19934;-66
2022/04/14 22:51:09;;;;;;;;;;;;;;;11.35;75.83;102174.44;10573279;28;19924;-66
2022/04/14 22:56:31;;;;;;;;;;;;;;;11.36;76.20;102176.09;10561662;28;20399;-66
2022/04/14 23:01:52;;;;;;;;;;;;;;;11.39;75.68;102182.97;10576930;28;19935;-66
2022/04/14 23:07:14;;;;;;;;;;;;;;;11.29;74.80;102177.31;10575436;28;19931;-66
2022/04/14 23:12:39;;;;;;;;;;;;;;;11.24;74.09;102176.69;10579690;27;19924;-66
2022/04/14 23:18:01;;;;;;;;;;;;;;;11.17;74.18;102183.09;10569828;28;19936;-66
2022/04/14 23:23:22;;;;;;;;;;;;;;;11.03;74.64;102172.44;10573637;28;20042;-66
2022/04/14 23:28:44;;;;;;;;;;;;;;;11.04;74.33;102174.16;10559587;28;19935;-64
2022/04/14 23:34:06;;;;;;;;;;;;;;;11.06;74.80;102180.13;10573937;28;19924;-66
2022/04/14 23:39:46;;;;;;;;;;;;;;;11.07;75.00;102181.81;10575399;28;19928;-66
2022/04/14 23:45:08;;;;;;;;;;;;;;;11.05;75.53;102180.19;10559013;28;19931;-66
2022/04/14 23:50:30;;;;;;;;;;;;;;;11.04;75.61;102181.97;10575685;28;19936;-66
2022/04/14 23:55:51;;;;;;;;;;;;;;;11.03;76.16;102184.63;10573105;28;19931;-66
